sensor_id;sensor_type;location;lat;lon;timestamp;temperature;humidity
5218;DHT22;26539;51.064;6.346;2024-02-21T00:01:53;9.60;99.90
5218;DHT22;26539;51.064;6.346;2024-02-21T00:04:18;9.60;99.90
5218;DHT22;26539;51.064;6.346;2024-02-21T00:06:44;9.60;99.90
5218;DHT22;26539;51.064;6.346;2024-02-21T00:09:10;9.60;99.90
5218;DHT22;26539;51.064;6.346;2024-02-21T00:11:38;9.60;99.90
5218;DHT22;26539;51.064;6.346;2024-02-21T00:14:03;9.60;99.90
5218;DHT22;26539;51.064;6.346;2024-02-21T00:16:29;9.60;99.90
5218;DHT22;26539;51.064;6.346;2024-02-21T00:18:54;9.60;99.90
5218;DHT22;26539;51.064;6.346;2024-02-21T00:21:20;9.60;99.90
5218;DHT22;26539;51.064;6.346;2024-02-21T00:23:45;9.50;99.90
5218;DHT22;26539;51.064;6.346;2024-02-21T00:26:14;9.50;99.90
5218;DHT22;26539;51.064;6.346;2024-02-21T00:28:39;9.50;99.90
5218;DHT22;26539;51.064;6.346;2024-02-21T00:31:05;9.60;99.90
5218;DHT22;26539;51.064;6.346;2024-02-21T00:33:30;9.50;99.90
5218;DHT22;26539;51.064;6.346;2024-02-21T00:35:56;9.50;99.90
5218;DHT22;26539;51.064;6.346;2024-02-21T00:38:21;9.50;99.90
5218;DHT22;26539;51.064;6.346;2024-02-21T00:40:47;9.50;99.90
5218;DHT22;26539;51.064;6.346;2024-02-21T00:43:12;9.50;99.90
5218;DHT22;26539;51.064;6.346;2024-02-21T00:45:38;9.50;99.90
5218;DHT22;26539;51.064;6.346;2024-02-21T00:48:03;9.50;99.90
5218;DHT22;26539;51.064;6.346;2024-02-21T00:50:29;9.50;99.90
5218;DHT22;26539;51.064;6.346;2024-02-21T00:52:55;9.50;99.90
5218;DHT22;26539;51.064;6.346;2024-02-21T00:55:20;9.50;99.90
5218;DHT22;26539;51.064;6.346;2024-02-21T00:57:46;9.50;99.90
5218;DHT22;26539;51.064;6.346;2024-02-21T01:00:11;9.50;99.90
5218;DHT22;26539;51.064;6.346;2024-02-21T01:02:37;9.50;99.90
5218;DHT22;26539;51.064;6.346;2024-02-21T01:05:03;9.50;99.90
5218;DHT22;26539;51.064;6.346;2024-02-21T01:07:28;9.50;99.90
5218;DHT22;26539;51.064;6.346;2024-02-21T01:09:54;9.50;99.90
5218;DHT22;26539;51.064;6.346;2024-02-21T01:12:19;9.70;99.90
5218;DHT22;26539;51.064;6.346;2024-02-21T01:14:45;9.70;99.90
5218;DHT22;26539;51.064;6.346;2024-02-21T01:17:11;9.50;99.90
5218;DHT22;26539;51.064;6.346;2024-02-21T01:19:37;9.50;99.90
5218;DHT22;26539;51.064;6.346;2024-02-21T01:22:03;9.50;99.90
5218;DHT22;26539;51.064;6.346;2024-02-21T01:24:28;9.50;99.90
5218;DHT22;26539;51.064;6.346;2024-02-21T01:26:54;9.50;99.90
5218;DHT22;26539;51.064;6.346;2024-02-21T01:29:19;9.50;99.90
5218;DHT22;26539;51.064;6.346;2024-02-21T01:31:45;9.50;99.90
5218;DHT22;26539;51.064;6.346;2024-02-21T01:34:11;9.50;99.90
5218;DHT22;26539;51.064;6.346;2024-02-21T01:36:36;9.50;99.90
5218;DHT22;26539;51.064;6.346;2024-02-21T01:39:01;9.60;99.90
5218;DHT22;26539;51.064;6.346;2024-02-21T01:41:29;9.40;99.90
5218;DHT22;26539;51.064;6.346;2024-02-21T01:43:55;9.40;99.90
5218;DHT22;26539;51.064;6.346;2024-02-21T01:46:20;9.40;99.90
5218;DHT22;26539;51.064;6.346;2024-02-21T01:48:46;9.50;99.90
5218;DHT22;26539;51.064;6.346;2024-02-21T01:51:11;9.40;99.90
5218;DHT22;26539;51.064;6.346;2024-02-21T01:53:37;9.50;99.90
5218;DHT22;26539;51.064;6.346;2024-02-21T01:56:05;9.40;99.90
5218;DHT22;26539;51.064;6.346;2024-02-21T01:58:31;9.40;99.90
5218;DHT22;26539;51.064;6.346;2024-02-21T02:00:59;9.40;99.90
5218;DHT22;26539;51.064;6.346;2024-02-21T02:03:24;9.40;99.90
5218;DHT22;26539;51.064;6.346;2024-02-21T02:05:50;9.40;99.90
5218;DHT22;26539;51.064;6.346;2024-02-21T02:08:17;9.40;99.90
5218;DHT22;26539;51.064;6.346;2024-02-21T02:10:43;9.40;99.90
5218;DHT22;26539;51.064;6.346;2024-02-21T02:13:08;9.40;99.90
5218;DHT22;26539;51.064;6.346;2024-02-21T02:15:38;9.30;99.90
5218;DHT22;26539;51.064;6.346;2024-02-21T02:18:03;9.40;99.90
5218;DHT22;26539;51.064;6.346;2024-02-21T02:20:29;9.40;99.90
5218;DHT22;26539;51.064;6.346;2024-02-21T02:22:54;9.40;99.90
5218;DHT22;26539;51.064;6.346;2024-02-21T02:25:20;9.30;99.90
5218;DHT22;26539;51.064;6.346;2024-02-21T02:27:46;9.40;99.90
5218;DHT22;26539;51.064;6.346;2024-02-21T02:30:11;9.40;99.90
5218;DHT22;26539;51.064;6.346;2024-02-21T02:32:37;9.40;99.90
5218;DHT22;26539;51.064;6.346;2024-02-21T02:35:02;9.40;99.90
5218;DHT22;26539;51.064;6.346;2024-02-21T02:37:28;9.40;99.90
5218;DHT22;26539;51.064;6.346;2024-02-21T02:39:53;9.40;99.90
5218;DHT22;26539;51.064;6.346;2024-02-21T02:42:19;9.50;99.90
5218;DHT22;26539;51.064;6.346;2024-02-21T02:44:44;9.40;99.90
5218;DHT22;26539;51.064;6.346;2024-02-21T02:47:10;9.40;99.90
5218;DHT22;26539;51.064;6.346;2024-02-21T02:49:35;9.40;99.90
5218;DHT22;26539;51.064;6.346;2024-02-21T02:52:01;9.40;99.90
5218;DHT22;26539;51.064;6.346;2024-02-21T02:54:26;9.40;99.90
5218;DHT22;26539;51.064;6.346;2024-02-21T02:56:53;9.40;99.90
5218;DHT22;26539;51.064;6.346;2024-02-21T02:59:18;9.30;99.90
5218;DHT22;26539;51.064;6.346;2024-02-21T03:01:43;9.40;99.90
5218;DHT22;26539;51.064;6.346;2024-02-21T03:04:09;9.30;99.90
5218;DHT22;26539;51.064;6.346;2024-02-21T03:06:35;9.40;99.90
5218;DHT22;26539;51.064;6.346;2024-02-21T03:09:00;9.30;99.90
5218;DHT22;26539;51.064;6.346;2024-02-21T03:11:26;9.30;99.90
5218;DHT22;26539;51.064;6.346;2024-02-21T03:13:54;9.30;99.90
5218;DHT22;26539;51.064;6.346;2024-02-21T03:16:23;9.40;99.90
5218;DHT22;26539;51.064;6.346;2024-02-21T03:18:48;9.30;99.90
5218;DHT22;26539;51.064;6.346;2024-02-21T03:21:14;9.40;99.90
5218;DHT22;26539;51.064;6.346;2024-02-21T03:23:39;9.30;99.90
5218;DHT22;26539;51.064;6.346;2024-02-21T03:26:07;9.30;99.90
5218;DHT22;26539;51.064;6.346;2024-02-21T03:28:35;9.30;99.90
5218;DHT22;26539;51.064;6.346;2024-02-21T03:31:01;9.30;99.90
5218;DHT22;26539;51.064;6.346;2024-02-21T03:33:27;9.30;99.90
5218;DHT22;26539;51.064;6.346;2024-02-21T03:35:52;9.30;99.90
5218;DHT22;26539;51.064;6.346;2024-02-21T03:38:18;9.30;99.90
5218;DHT22;26539;51.064;6.346;2024-02-21T03:40:44;9.30;99.90
5218;DHT22;26539;51.064;6.346;2024-02-21T03:43:09;9.30;99.90
5218;DHT22;26539;51.064;6.346;2024-02-21T03:45:38;9.30;99.90
5218;DHT22;26539;51.064;6.346;2024-02-21T03:48:03;9.30;99.90
5218;DHT22;26539;51.064;6.346;2024-02-21T03:50:29;9.30;99.90
5218;DHT22;26539;51.064;6.346;2024-02-21T03:52:54;9.20;99.90
5218;DHT22;26539;51.064;6.346;2024-02-21T03:55:20;9.30;99.90
5218;DHT22;26539;51.064;6.346;2024-02-21T03:57:47;9.30;99.90
5218;DHT22;26539;51.064;6.346;2024-02-21T04:00:12;9.30;99.90
5218;DHT22;26539;51.064;6.346;2024-02-21T04:02:38;9.30;99.90
5218;DHT22;26539;51.064;6.346;2024-02-21T04:05:03;9.20;99.90
5218;DHT22;26539;51.064;6.346;2024-02-21T04:07:29;9.20;99.90
5218;DHT22;26539;51.064;6.346;2024-02-21T04:09:54;9.20;99.90
5218;DHT22;26539;51.064;6.346;2024-02-21T04:12:22;9.20;99.90
5218;DHT22;26539;51.064;6.346;2024-02-21T04:14:48;9.20;99.90
5218;DHT22;26539;51.064;6.346;2024-02-21T04:17:13;9.20;99.90
5218;DHT22;26539;51.064;6.346;2024-02-21T04:19:39;9.20;99.90
5218;DHT22;26539;51.064;6.346;2024-02-21T04:22:04;9.20;99.90
5218;DHT22;26539;51.064;6.346;2024-02-21T04:24:30;9.20;99.90
5218;DHT22;26539;51.064;6.346;2024-02-21T04:26:55;9.20;99.90
5218;DHT22;26539;51.064;6.346;2024-02-21T04:29:20;9.20;99.90
5218;DHT22;26539;51.064;6.346;2024-02-21T04:31:46;9.20;99.90
5218;DHT22;26539;51.064;6.346;2024-02-21T04:34:11;9.20;99.90
5218;DHT22;26539;51.064;6.346;2024-02-21T04:36:37;9.20;99.90
5218;DHT22;26539;51.064;6.346;2024-02-21T04:39:02;9.20;99.90
5218;DHT22;26539;51.064;6.346;2024-02-21T04:41:28;9.20;99.90
5218;DHT22;26539;51.064;6.346;2024-02-21T04:43:53;9.20;99.90
5218;DHT22;26539;51.064;6.346;2024-02-21T04:46:19;9.20;99.90
5218;DHT22;26539;51.064;6.346;2024-02-21T04:48:45;9.20;99.90
5218;DHT22;26539;51.064;6.346;2024-02-21T04:51:11;9.20;99.90
5218;DHT22;26539;51.064;6.346;2024-02-21T04:53:36;9.30;99.90
5218;DHT22;26539;51.064;6.346;2024-02-21T04:56:02;9.20;99.90
5218;DHT22;26539;51.064;6.346;2024-02-21T04:58:28;9.20;99.90
5218;DHT22;26539;51.064;6.346;2024-02-21T05:00:53;9.20;99.90
5218;DHT22;26539;51.064;6.346;2024-02-21T05:03:20;9.20;99.90
5218;DHT22;26539;51.064;6.346;2024-02-21T05:05:46;9.20;99.90
5218;DHT22;26539;51.064;6.346;2024-02-21T05:08:11;9.30;99.90
5218;DHT22;26539;51.064;6.346;2024-02-21T05:10:36;9.30;99.90
5218;DHT22;26539;51.064;6.346;2024-02-21T05:13:02;9.20;99.90
5218;DHT22;26539;51.064;6.346;2024-02-21T05:15:27;9.20;99.90
5218;DHT22;26539;51.064;6.346;2024-02-21T05:17:53;9.20;99.90
5218;DHT22;26539;51.064;6.346;2024-02-21T05:20:18;9.20;99.90
5218;DHT22;26539;51.064;6.346;2024-02-21T05:22:44;9.20;99.90
5218;DHT22;26539;51.064;6.346;2024-02-21T05:25:09;9.20;99.90
5218;DHT22;26539;51.064;6.346;2024-02-21T05:27:35;9.20;99.90
5218;DHT22;26539;51.064;6.346;2024-02-21T05:30:02;9.30;99.90
5218;DHT22;26539;51.064;6.346;2024-02-21T05:32:27;9.20;99.90
5218;DHT22;26539;51.064;6.346;2024-02-21T05:34:53;9.20;99.90
5218;DHT22;26539;51.064;6.346;2024-02-21T05:37:18;9.20;99.90
5218;DHT22;26539;51.064;6.346;2024-02-21T05:39:44;9.20;99.90
5218;DHT22;26539;51.064;6.346;2024-02-21T05:42:09;9.20;99.90
5218;DHT22;26539;51.064;6.346;2024-02-21T05:44:35;9.20;99.90
5218;DHT22;26539;51.064;6.346;2024-02-21T05:47:00;9.20;99.90
5218;DHT22;26539;51.064;6.346;2024-02-21T05:49:26;9.20;99.90
5218;DHT22;26539;51.064;6.346;2024-02-21T05:51:51;9.20;99.90
5218;DHT22;26539;51.064;6.346;2024-02-21T05:54:17;9.20;99.90
5218;DHT22;26539;51.064;6.346;2024-02-21T05:56:45;9.20;99.90
5218;DHT22;26539;51.064;6.346;2024-02-21T05:59:11;9.30;99.90
5218;DHT22;26539;51.064;6.346;2024-02-21T06:01:36;9.30;99.90
5218;DHT22;26539;51.064;6.346;2024-02-21T06:04:02;9.30;99.90
5218;DHT22;26539;51.064;6.346;2024-02-21T06:06:27;9.30;99.90
5218;DHT22;26539;51.064;6.346;2024-02-21T06:08:52;9.30;99.90
5218;DHT22;26539;51.064;6.346;2024-02-21T06:11:18;9.30;99.90
5218;DHT22;26539;51.064;6.346;2024-02-21T06:13:43;9.30;99.90
5218;DHT22;26539;51.064;6.346;2024-02-21T06:16:09;9.30;99.90
5218;DHT22;26539;51.064;6.346;2024-02-21T06:18:35;9.20;99.90
5218;DHT22;26539;51.064;6.346;2024-02-21T06:21:00;9.30;79.70
5218;DHT22;26539;51.064;6.346;2024-02-21T06:23:26;9.30;51.10
5218;DHT22;26539;51.064;6.346;2024-02-21T06:25:51;9.20;35.90
5218;DHT22;26539;51.064;6.346;2024-02-21T06:28:17;9.30;21.90
5218;DHT22;26539;51.064;6.346;2024-02-21T06:30:42;9.20;50.80
5218;DHT22;26539;51.064;6.346;2024-02-21T06:33:08;9.30;75.90
5218;DHT22;26539;51.064;6.346;2024-02-21T06:35:34;9.20;99.90
5218;DHT22;26539;51.064;6.346;2024-02-21T06:37:59;9.20;99.90
5218;DHT22;26539;51.064;6.346;2024-02-21T06:40:25;9.20;99.90
5218;DHT22;26539;51.064;6.346;2024-02-21T06:42:50;9.20;99.90
5218;DHT22;26539;51.064;6.346;2024-02-21T06:45:16;9.20;99.90
5218;DHT22;26539;51.064;6.346;2024-02-21T06:47:41;9.20;99.90
5218;DHT22;26539;51.064;6.346;2024-02-21T06:50:07;9.20;99.90
5218;DHT22;26539;51.064;6.346;2024-02-21T06:52:34;9.20;99.90
5218;DHT22;26539;51.064;6.346;2024-02-21T06:54:59;9.20;99.90
5218;DHT22;26539;51.064;6.346;2024-02-21T06:57:25;9.20;99.90
5218;DHT22;26539;51.064;6.346;2024-02-21T06:59:50;9.20;99.90
5218;DHT22;26539;51.064;6.346;2024-02-21T07:02:16;9.20;99.90
5218;DHT22;26539;51.064;6.346;2024-02-21T07:04:41;9.30;1.00
5218;DHT22;26539;51.064;6.346;2024-02-21T07:07:07;9.30;1.00
5218;DHT22;26539;51.064;6.346;2024-02-21T07:09:32;9.30;99.90
5218;DHT22;26539;51.064;6.346;2024-02-21T07:11:58;9.40;99.90
5218;DHT22;26539;51.064;6.346;2024-02-21T07:14:24;9.40;99.90
5218;DHT22;26539;51.064;6.346;2024-02-21T07:16:50;9.40;99.90
5218;DHT22;26539;51.064;6.346;2024-02-21T07:19:15;9.40;99.90
5218;DHT22;26539;51.064;6.346;2024-02-21T07:21:41;9.40;92.40
5218;DHT22;26539;51.064;6.346;2024-02-21T07:24:07;9.40;1.00
5218;DHT22;26539;51.064;6.346;2024-02-21T07:26:33;9.30;1.00
5218;DHT22;26539;51.064;6.346;2024-02-21T07:28:58;9.30;99.90
5218;DHT22;26539;51.064;6.346;2024-02-21T07:31:24;9.40;99.90
5218;DHT22;26539;51.064;6.346;2024-02-21T07:33:49;9.30;99.90
5218;DHT22;26539;51.064;6.346;2024-02-21T07:36:15;9.40;1.00
5218;DHT22;26539;51.064;6.346;2024-02-21T07:38:40;9.40;99.90
5218;DHT22;26539;51.064;6.346;2024-02-21T07:41:06;9.30;1.00
5218;DHT22;26539;51.064;6.346;2024-02-21T07:43:32;9.30;99.90
5218;DHT22;26539;51.064;6.346;2024-02-21T07:45:57;9.30;1.00
5218;DHT22;26539;51.064;6.346;2024-02-21T07:48:23;9.40;99.90
5218;DHT22;26539;51.064;6.346;2024-02-21T07:50:50;9.40;99.90
5218;DHT22;26539;51.064;6.346;2024-02-21T07:53:16;9.40;1.00
5218;DHT22;26539;51.064;6.346;2024-02-21T07:55:41;9.40;1.00
5218;DHT22;26539;51.064;6.346;2024-02-21T07:58:06;9.40;99.90
5218;DHT22;26539;51.064;6.346;2024-02-21T08:00:32;9.50;99.90
5218;DHT22;26539;51.064;6.346;2024-02-21T08:02:58;9.40;1.00
5218;DHT22;26539;51.064;6.346;2024-02-21T08:05:23;9.50;99.90
5218;DHT22;26539;51.064;6.346;2024-02-21T08:07:49;9.50;1.00
5218;DHT22;26539;51.064;6.346;2024-02-21T08:10:15;9.50;1.00
5218;DHT22;26539;51.064;6.346;2024-02-21T08:12:40;9.50;1.00
5218;DHT22;26539;51.064;6.346;2024-02-21T08:15:06;9.50;99.90
5218;DHT22;26539;51.064;6.346;2024-02-21T08:17:33;9.60;99.90
5218;DHT22;26539;51.064;6.346;2024-02-21T08:19:59;9.60;14.50
5218;DHT22;26539;51.064;6.346;2024-02-21T08:22:24;9.60;1.00
5218;DHT22;26539;51.064;6.346;2024-02-21T08:24:50;9.60;1.00
5218;DHT22;26539;51.064;6.346;2024-02-21T08:27:15;9.60;1.00
5218;DHT22;26539;51.064;6.346;2024-02-21T08:29:41;9.60;1.00
5218;DHT22;26539;51.064;6.346;2024-02-21T08:32:06;9.70;1.00
5218;DHT22;26539;51.064;6.346;2024-02-21T08:34:32;9.70;1.00
5218;DHT22;26539;51.064;6.346;2024-02-21T08:36:59;9.70;1.00
5218;DHT22;26539;51.064;6.346;2024-02-21T08:39:25;9.80;99.90
5218;DHT22;26539;51.064;6.346;2024-02-21T08:41:51;9.90;99.90
5218;DHT22;26539;51.064;6.346;2024-02-21T08:44:16;9.90;99.90
5218;DHT22;26539;51.064;6.346;2024-02-21T08:46:42;10.10;99.90
5218;DHT22;26539;51.064;6.346;2024-02-21T08:49:09;10.10;99.90
5218;DHT22;26539;51.064;6.346;2024-02-21T08:51:35;10.20;94.50
5218;DHT22;26539;51.064;6.346;2024-02-21T08:54:00;10.20;6.30
5218;DHT22;26539;51.064;6.346;2024-02-21T08:56:27;10.30;1.00
5218;DHT22;26539;51.064;6.346;2024-02-21T08:58:52;10.30;1.00
5218;DHT22;26539;51.064;6.346;2024-02-21T09:01:18;10.30;1.00
5218;DHT22;26539;51.064;6.346;2024-02-21T09:03:43;10.30;1.00
5218;DHT22;26539;51.064;6.346;2024-02-21T09:06:09;10.30;1.00
5218;DHT22;26539;51.064;6.346;2024-02-21T09:08:35;10.30;1.00
5218;DHT22;26539;51.064;6.346;2024-02-21T09:11:01;10.30;1.00
5218;DHT22;26539;51.064;6.346;2024-02-21T09:13:26;10.30;1.00
5218;DHT22;26539;51.064;6.346;2024-02-21T09:15:52;10.40;1.00
5218;DHT22;26539;51.064;6.346;2024-02-21T09:18:17;10.40;1.00
5218;DHT22;26539;51.064;6.346;2024-02-21T09:20:43;10.50;99.90
5218;DHT22;26539;51.064;6.346;2024-02-21T09:23:09;10.60;1.00
5218;DHT22;26539;51.064;6.346;2024-02-21T09:25:34;10.60;99.90
5218;DHT22;26539;51.064;6.346;2024-02-21T09:28:01;10.80;99.90
5218;DHT22;26539;51.064;6.346;2024-02-21T09:30:26;11.00;99.90
5218;DHT22;26539;51.064;6.346;2024-02-21T09:32:55;11.20;99.90
5218;DHT22;26539;51.064;6.346;2024-02-21T09:35:23;11.40;99.90
5218;DHT22;26539;51.064;6.346;2024-02-21T09:37:51;11.60;99.90
5218;DHT22;26539;51.064;6.346;2024-02-21T09:40:16;11.70;88.40
5218;DHT22;26539;51.064;6.346;2024-02-21T09:42:42;11.70;15.60
5218;DHT22;26539;51.064;6.346;2024-02-21T09:45:19;11.70;1.00
5218;DHT22;26539;51.064;6.346;2024-02-21T09:50:28;11.80;1.00
5218;DHT22;26539;51.064;6.346;2024-02-21T09:52:54;12.00;1.00
5218;DHT22;26539;51.064;6.346;2024-02-21T09:55:20;12.00;1.00
5218;DHT22;26539;51.064;6.346;2024-02-21T09:57:45;12.00;1.00
5218;DHT22;26539;51.064;6.346;2024-02-21T10:00:11;12.00;1.00
5218;DHT22;26539;51.064;6.346;2024-02-21T10:02:39;12.10;1.00
5218;DHT22;26539;51.064;6.346;2024-02-21T10:05:04;12.20;1.00
5218;DHT22;26539;51.064;6.346;2024-02-21T10:07:33;12.30;1.00
5218;DHT22;26539;51.064;6.346;2024-02-21T10:10:02;12.50;1.00
5218;DHT22;26539;51.064;6.346;2024-02-21T10:12:28;12.60;1.00
5218;DHT22;26539;51.064;6.346;2024-02-21T10:15:00;12.70;1.00
5218;DHT22;26539;51.064;6.346;2024-02-21T10:17:26;12.70;1.00
5218;DHT22;26539;51.064;6.346;2024-02-21T10:19:51;12.70;1.00
5218;DHT22;26539;51.064;6.346;2024-02-21T10:22:17;12.60;1.00
5218;DHT22;26539;51.064;6.346;2024-02-21T10:24:43;12.40;1.00
5218;DHT22;26539;51.064;6.346;2024-02-21T10:27:09;12.40;1.00
5218;DHT22;26539;51.064;6.346;2024-02-21T10:29:36;12.40;1.00
5218;DHT22;26539;51.064;6.346;2024-02-21T10:32:05;12.40;1.00
5218;DHT22;26539;51.064;6.346;2024-02-21T10:34:31;12.40;1.00
5218;DHT22;26539;51.064;6.346;2024-02-21T10:37:03;12.40;1.00
5218;DHT22;26539;51.064;6.346;2024-02-21T10:39:30;12.50;1.00
5218;DHT22;26539;51.064;6.346;2024-02-21T10:41:56;12.50;1.00
5218;DHT22;26539;51.064;6.346;2024-02-21T10:44:24;12.60;1.00
5218;DHT22;26539;51.064;6.346;2024-02-21T10:46:51;12.60;1.00
5218;DHT22;26539;51.064;6.346;2024-02-21T10:49:19;12.70;1.00
5218;DHT22;26539;51.064;6.346;2024-02-21T10:51:47;12.90;1.00
5218;DHT22;26539;51.064;6.346;2024-02-21T10:54:18;13.10;1.00
5218;DHT22;26539;51.064;6.346;2024-02-21T10:56:49;13.30;1.00
5218;DHT22;26539;51.064;6.346;2024-02-21T10:59:15;13.50;1.00
5218;DHT22;26539;51.064;6.346;2024-02-21T11:01:41;13.60;1.00
5218;DHT22;26539;51.064;6.346;2024-02-21T11:04:10;13.80;1.00
5218;DHT22;26539;51.064;6.346;2024-02-21T11:06:37;13.80;1.00
5218;DHT22;26539;51.064;6.346;2024-02-21T11:09:03;13.90;1.00
5218;DHT22;26539;51.064;6.346;2024-02-21T11:11:37;13.90;1.00
5218;DHT22;26539;51.064;6.346;2024-02-21T11:16:34;14.00;1.00
5218;DHT22;26539;51.064;6.346;2024-02-21T11:21:56;14.00;1.00
5218;DHT22;26539;51.064;6.346;2024-02-21T11:24:29;14.00;1.00
5218;DHT22;26539;51.064;6.346;2024-02-21T11:26:55;14.00;1.00
5218;DHT22;26539;51.064;6.346;2024-02-21T11:29:24;14.00;1.00
5218;DHT22;26539;51.064;6.346;2024-02-21T11:31:51;14.10;1.00
5218;DHT22;26539;51.064;6.346;2024-02-21T11:34:19;14.10;1.00
5218;DHT22;26539;51.064;6.346;2024-02-21T11:36:49;14.20;1.00
5218;DHT22;26539;51.064;6.346;2024-02-21T11:39:18;14.20;1.00
5218;DHT22;26539;51.064;6.346;2024-02-21T11:41:46;14.20;1.00
5218;DHT22;26539;51.064;6.346;2024-02-21T11:44:11;14.30;1.00
5218;DHT22;26539;51.064;6.346;2024-02-21T11:46:37;14.30;1.00
5218;DHT22;26539;51.064;6.346;2024-02-21T11:49:03;14.30;1.00
5218;DHT22;26539;51.064;6.346;2024-02-21T11:51:28;14.20;1.00
5218;DHT22;26539;51.064;6.346;2024-02-21T11:53:54;14.10;1.00
5218;DHT22;26539;51.064;6.346;2024-02-21T11:56:20;14.10;1.00
5218;DHT22;26539;51.064;6.346;2024-02-21T11:58:46;14.10;1.00
5218;DHT22;26539;51.064;6.346;2024-02-21T12:01:12;14.10;1.00
5218;DHT22;26539;51.064;6.346;2024-02-21T12:03:38;14.10;1.00
5218;DHT22;26539;51.064;6.346;2024-02-21T12:06:05;14.10;1.00
5218;DHT22;26539;51.064;6.346;2024-02-21T12:08:40;14.20;1.00
5218;DHT22;26539;51.064;6.346;2024-02-21T12:11:15;14.20;1.00
5218;DHT22;26539;51.064;6.346;2024-02-21T12:13:41;14.30;1.00
5218;DHT22;26539;51.064;6.346;2024-02-21T12:16:06;14.50;1.00
5218;DHT22;26539;51.064;6.346;2024-02-21T12:18:32;14.70;1.00
5218;DHT22;26539;51.064;6.346;2024-02-21T12:20:58;14.90;1.00
5218;DHT22;26539;51.064;6.346;2024-02-21T12:23:26;15.10;99.90
5218;DHT22;26539;51.064;6.346;2024-02-21T12:25:52;15.30;99.90
5218;DHT22;26539;51.064;6.346;2024-02-21T12:28:19;15.50;99.90
5218;DHT22;26539;51.064;6.346;2024-02-21T12:30:45;15.90;99.90
5218;DHT22;26539;51.064;6.346;2024-02-21T12:33:10;16.20;99.90
5218;DHT22;26539;51.064;6.346;2024-02-21T12:35:35;16.60;99.90
5218;DHT22;26539;51.064;6.346;2024-02-21T12:38:01;16.90;99.90
5218;DHT22;26539;51.064;6.346;2024-02-21T12:40:27;17.00;99.90
5218;DHT22;26539;51.064;6.346;2024-02-21T12:42:59;17.20;99.90
5218;DHT22;26539;51.064;6.346;2024-02-21T12:45:24;17.30;99.90
5218;DHT22;26539;51.064;6.346;2024-02-21T12:47:49;17.60;99.90
5218;DHT22;26539;51.064;6.346;2024-02-21T12:50:15;17.80;99.90
5218;DHT22;26539;51.064;6.346;2024-02-21T12:52:40;18.00;99.90
5218;DHT22;26539;51.064;6.346;2024-02-21T12:55:06;18.30;99.90
5218;DHT22;26539;51.064;6.346;2024-02-21T12:57:32;18.40;99.90
5218;DHT22;26539;51.064;6.346;2024-02-21T12:59:57;18.60;99.90
5218;DHT22;26539;51.064;6.346;2024-02-21T13:02:23;18.70;99.90
5218;DHT22;26539;51.064;6.346;2024-02-21T13:04:48;18.70;99.90
5218;DHT22;26539;51.064;6.346;2024-02-21T13:07:14;18.90;99.90
5218;DHT22;26539;51.064;6.346;2024-02-21T13:09:39;19.00;99.90
5218;DHT22;26539;51.064;6.346;2024-02-21T13:12:05;19.00;99.90
5218;DHT22;26539;51.064;6.346;2024-02-21T13:14:31;18.90;99.90
5218;DHT22;26539;51.064;6.346;2024-02-21T13:16:58;18.60;99.90
5218;DHT22;26539;51.064;6.346;2024-02-21T13:19:23;18.40;99.90
5218;DHT22;26539;51.064;6.346;2024-02-21T13:21:49;18.20;99.90
5218;DHT22;26539;51.064;6.346;2024-02-21T13:24:14;17.90;99.90
5218;DHT22;26539;51.064;6.346;2024-02-21T13:26:40;17.70;99.90
5218;DHT22;26539;51.064;6.346;2024-02-21T13:29:05;17.50;99.90
5218;DHT22;26539;51.064;6.346;2024-02-21T13:31:31;17.20;99.90
5218;DHT22;26539;51.064;6.346;2024-02-21T13:33:56;16.90;99.90
5218;DHT22;26539;51.064;6.346;2024-02-21T13:36:22;16.60;99.90
5218;DHT22;26539;51.064;6.346;2024-02-21T13:38:47;16.30;99.90
5218;DHT22;26539;51.064;6.346;2024-02-21T13:41:15;16.00;99.90
5218;DHT22;26539;51.064;6.346;2024-02-21T13:43:41;15.80;99.90
5218;DHT22;26539;51.064;6.346;2024-02-21T13:46:06;15.60;99.90
5218;DHT22;26539;51.064;6.346;2024-02-21T13:48:35;15.50;99.90
5218;DHT22;26539;51.064;6.346;2024-02-21T13:51:00;15.40;99.90
5218;DHT22;26539;51.064;6.346;2024-02-21T13:53:27;15.30;99.90
5218;DHT22;26539;51.064;6.346;2024-02-21T13:55:53;15.20;99.90
5218;DHT22;26539;51.064;6.346;2024-02-21T13:58:18;15.20;99.90
5218;DHT22;26539;51.064;6.346;2024-02-21T14:00:45;15.10;99.90
5218;DHT22;26539;51.064;6.346;2024-02-21T14:03:10;15.10;99.90
5218;DHT22;26539;51.064;6.346;2024-02-21T14:05:36;15.10;99.90
5218;DHT22;26539;51.064;6.346;2024-02-21T14:08:01;15.10;99.90
5218;DHT22;26539;51.064;6.346;2024-02-21T14:10:27;15.10;99.90
5218;DHT22;26539;51.064;6.346;2024-02-21T14:12:53;15.10;99.90
5218;DHT22;26539;51.064;6.346;2024-02-21T14:15:19;15.10;99.90
5218;DHT22;26539;51.064;6.346;2024-02-21T14:17:44;15.00;99.90
5218;DHT22;26539;51.064;6.346;2024-02-21T14:20:10;15.00;99.90
5218;DHT22;26539;51.064;6.346;2024-02-21T14:22:36;14.90;99.90
5218;DHT22;26539;51.064;6.346;2024-02-21T14:25:04;14.80;99.90
5218;DHT22;26539;51.064;6.346;2024-02-21T14:27:32;14.80;99.90
5218;DHT22;26539;51.064;6.346;2024-02-21T14:29:57;14.70;99.90
5218;DHT22;26539;51.064;6.346;2024-02-21T14:32:23;14.70;99.90
5218;DHT22;26539;51.064;6.346;2024-02-21T14:34:49;14.60;99.90
5218;DHT22;26539;51.064;6.346;2024-02-21T14:37:14;14.50;99.90
5218;DHT22;26539;51.064;6.346;2024-02-21T14:39:40;14.50;99.90
5218;DHT22;26539;51.064;6.346;2024-02-21T14:42:06;14.50;99.90
5218;DHT22;26539;51.064;6.346;2024-02-21T14:44:32;14.40;99.90
5218;DHT22;26539;51.064;6.346;2024-02-21T14:46:57;14.40;99.90
5218;DHT22;26539;51.064;6.346;2024-02-21T14:49:23;14.30;99.90
5218;DHT22;26539;51.064;6.346;2024-02-21T14:51:50;14.20;99.90
5218;DHT22;26539;51.064;6.346;2024-02-21T14:54:15;14.10;99.90
5218;DHT22;26539;51.064;6.346;2024-02-21T14:56:41;14.10;99.90
5218;DHT22;26539;51.064;6.346;2024-02-21T14:59:06;14.10;99.90
5218;DHT22;26539;51.064;6.346;2024-02-21T15:01:41;14.00;99.90
5218;DHT22;26539;51.064;6.346;2024-02-21T15:04:06;13.90;99.90
5218;DHT22;26539;51.064;6.346;2024-02-21T15:06:33;13.90;99.90
5218;DHT22;26539;51.064;6.346;2024-02-21T15:09:00;13.80;99.90
5218;DHT22;26539;51.064;6.346;2024-02-21T15:11:26;13.70;99.90
5218;DHT22;26539;51.064;6.346;2024-02-21T15:13:51;13.60;99.90
5218;DHT22;26539;51.064;6.346;2024-02-21T15:16:17;13.50;99.90
5218;DHT22;26539;51.064;6.346;2024-02-21T15:18:42;13.50;99.90
5218;DHT22;26539;51.064;6.346;2024-02-21T15:21:08;13.40;99.90
5218;DHT22;26539;51.064;6.346;2024-02-21T15:23:38;13.40;99.90
5218;DHT22;26539;51.064;6.346;2024-02-21T15:26:04;13.30;99.90
5218;DHT22;26539;51.064;6.346;2024-02-21T15:28:29;13.20;99.90
5218;DHT22;26539;51.064;6.346;2024-02-21T15:30:55;13.20;99.90
5218;DHT22;26539;51.064;6.346;2024-02-21T15:33:22;13.10;99.90
5218;DHT22;26539;51.064;6.346;2024-02-21T15:35:47;13.00;99.90
5218;DHT22;26539;51.064;6.346;2024-02-21T15:38:13;12.90;99.90
5218;DHT22;26539;51.064;6.346;2024-02-21T15:40:39;12.90;99.90
5218;DHT22;26539;51.064;6.346;2024-02-21T15:43:04;12.80;99.90
5218;DHT22;26539;51.064;6.346;2024-02-21T15:45:29;12.70;99.90
5218;DHT22;26539;51.064;6.346;2024-02-21T15:47:56;12.70;99.90
5218;DHT22;26539;51.064;6.346;2024-02-21T15:50:21;12.60;99.90
5218;DHT22;26539;51.064;6.346;2024-02-21T15:52:47;12.50;99.90
5218;DHT22;26539;51.064;6.346;2024-02-21T15:55:12;12.50;99.90
5218;DHT22;26539;51.064;6.346;2024-02-21T15:57:38;12.40;99.90